Latest Weather Observations for Yarrawonga

IDV60801

Issued at 1:31 pm EST Monday 2 May 2016 (issued every 30 minutes, with the page automatically refreshed every 10 minutes)

About weather observations | Map of weather stations | Latest weather observations for VIC | Other Formats
Station Details ID: 081124 Name: YARRAWONGA Lat: -36.03 Lon: 146.03 Height: 128.9 m
Data from the previous 72 hours. | See also: Recent months at Yarrawonga
Date/Time
EST
Temp
°C
App
Temp
°C
Dew
Point
Rel
Hum
%
Delta-T
°C
Wind Press
QNH
hPa
Press
MSL
hPa
Rain
since 9 am
mm
Dir
 
Spd
km/h
Gust
km/h
Spd
kts
Gust
kts
02/01:30pm 16.1 12.6 8.8 62 3.8 N 17 24 9 13 1014.1 1014.2 0.0
02/01:00pm 15.6 12.0 9.7 68 3.1 N 19 24 10 13 1014.7 1014.8 0.0
02/12:30pm 15.0 11.1 8.5 65 3.3 N 19 28 10 15 1015.5 1015.5 0.0
02/12:00pm 14.5 11.1 9.3 71 2.7 N 17 24 9 13 1015.8 1015.8 0.0
02/11:30am 14.1 10.3 9.1 72 2.6 N 19 24 10 13 1016.1 1016.1 0.0
02/11:00am 13.3 10.3 9.2 76 2.1 N 15 19 8 10 1016.4 1016.4 0.0
02/10:30am 12.8 9.8 9.4 80 1.7 NNE 15 20 8 11 1016.6 1016.6 0.0
02/10:00am 12.3 10.6 9.9 85 1.2 NE 9 15 5 8 1016.7 1016.7 0.0
02/09:30am 11.3 9.9 9.6 89 0.9 NE 7 9 4 5 1016.9 1016.9 0.0
02/09:00am 10.6 9.2 9.4 92 0.6 NE 7 9 4 5 1016.8 1016.8 0.0
02/08:30am 9.5 7.8 8.4 93 0.5 NE 7 9 4 5 1017.0 1017.0 0.0
02/08:00am 8.8 7.4 8.8 100 0.0 NE 6 7 3 4 1017.0 1017.0 0.0
02/07:30am 7.0 5.1 6.9 99 0.0 ENE 6 7 3 4 1016.9 1016.9 0.0
02/07:00am 5.9 4.2 5.8 99 0.0 E 4 6 2 3 1016.7 1016.7 0.0
02/06:30am 5.5 3.7 5.4 99 0.0 N 4 4 2 2 1016.7 1016.7 0.0
02/06:00am 5.6 4.2 5.3 98 0.1 N 2 2 1 1 1016.7 1016.7 0.0
02/05:30am 6.8 5.3 6.7 99 0.0 N 4 6 2 3 1016.6 1016.6 0.0
02/05:00am 6.5 4.9 6.2 98 0.1 NNW 4 6 2 3 1016.5 1016.5 0.0
02/04:30am 6.7 5.1 6.3 97 0.2 NNW 4 6 2 3 1016.4 1016.4 0.0
02/04:00am 6.5 4.5 6.2 98 0.1 NNW 6 6 3 3 1016.3 1016.3 0.0
02/03:30am 6.7 5.5 6.4 98 0.1 NW 2 4 1 2 1016.2 1016.2 0.0
02/03:00am 6.6 5.7 6.0 96 0.3 CALM 0 0 0 0 1016.3 1016.3 0.0
02/02:30am 7.3 6.5 6.6 95 0.3 CALM 0 0 0 0 1016.5 1016.5 0.0
02/02:00am 7.5 6.3 6.4 93 0.5 NW 2 2 1 1 1016.9 1016.9 0.0
02/01:30am 8.0 6.5 6.6 91 0.6 NW 4 6 2 3 1017.0 1017.0 0.0
02/01:00am 8.7 7.6 6.8 88 0.9 WNW 2 4 1 2 1017.1 1017.1 0.0
02/12:30am 9.8 7.9 6.9 82 1.4 W 6 7 3 4 1017.4 1017.4 0.0
02/12:00am 10.5 8.5 7.2 80 1.6 WNW 7 9 4 5 1017.6 1017.6 0.0
 
Date/Time
EST
Temp
°C
App
Temp
°C
Dew
Point
Rel
Hum
%
Delta-T
°C
Wind Press
QNH
hPa
Press
MSL
hPa
Rain
since 9 am
mm
Dir
 
Spd
km/h
Gust
km/h
Spd
kts
Gust
kts
01/11:30pm 11.0 8.6 7.1 77 1.9 WNW 9 13 5 7 1017.7 1017.7 0.0
01/11:00pm 11.4 9.1 7.3 76 2.0 NW 9 11 5 6 1017.8 1017.8 0.0
01/10:30pm 11.6 9.3 7.3 75 2.1 NW 9 13 5 7 1017.8 1017.8 0.0
01/10:00pm 11.8 9.5 7.5 75 2.1 NW 9 13 5 7 1017.9 1017.9 0.0
01/09:30pm 11.9 9.6 7.6 75 2.1 NW 9 13 5 7 1017.6 1017.6 0.0
01/09:00pm 12.2 9.9 7.5 73 2.3 NW 9 13 5 7 1017.4 1017.4 0.0
01/08:30pm 12.5 9.9 7.8 73 2.3 NW 11 17 6 9 1017.2 1017.2 0.0
01/08:00pm 13.1 10.5 7.8 70 2.6 NW 11 17 6 9 1016.9 1016.9 0.0
01/07:30pm 13.2 10.6 7.9 70 2.6 WNW 11 17 6 9 1016.7 1016.7 0.0
01/07:00pm 13.5 10.5 7.9 69 2.8 WNW 13 20 7 11 1016.3 1016.3 0.0
01/06:30pm 13.8 10.5 8.0 68 2.9 WNW 15 22 8 12 1015.9 1015.9 0.0
01/06:00pm 14.1 10.8 8.1 67 3.0 WNW 15 22 8 12 1015.6 1015.6 0.0
01/05:30pm 14.7 10.6 8.0 64 3.4 W 19 28 10 15 1015.1 1015.1 0.0
01/05:00pm 15.9 11.2 7.9 59 4.0 W 22 33 12 18 1014.5 1014.6 0.0
01/04:30pm 15.7 11.4 8.0 60 3.9 W 20 30 11 16 1014.2 1014.3 0.0
01/04:00pm 16.5 11.5 8.0 57 4.3 W 24 33 13 18 1014.0 1014.1 0.0
01/03:30pm 16.7 12.2 8.4 58 4.3 W 22 35 12 19 1013.6 1013.7 0.0
01/03:17pm 16.8 10.8 8.5 58 4.3 W 30 50 16 27 1013.5 1013.6 0.0
01/03:00pm 16.8 10.3 8.2 57 4.4 W 32 43 17 23 1013.3 1013.4 0.0
01/02:30pm 16.4 9.8 8.4 59 4.1 W 33 48 18 26 1013.1 1013.2 0.0
01/02:00pm 17.4 10.4 8.5 56 4.6 WNW 35 46 19 25 1012.8 1012.9 0.0
01/01:30pm 16.9 9.9 8.6 58 4.3 W 35 54 19 29 1012.5 1012.6 0.0
01/01:16pm 16.9 10.9 8.8 59 4.2 WNW 30 48 16 26 1012.5 1012.6 0.0
01/01:00pm 16.2 10.2 8.7 61 3.9 WNW 30 43 16 23 1012.5 1012.6 0.0
01/12:30pm 16.5 9.9 8.5 59 4.1 WNW 33 44 18 24 1012.6 1012.7 0.0
01/12:00pm 16.6 11.0 8.8 60 4.0 WNW 28 41 15 22 1012.8 1012.9 0.0
01/11:30am 16.6 12.0 9.5 63 3.7 W 24 43 13 23 1013.0 1013.1 0.0
01/11:00am 16.6 11.1 9.3 62 3.8 W 28 41 15 22 1013.0 1013.1 0.0
01/10:30am 16.6 10.3 9.1 61 3.9 W 32 48 17 26 1013.0 1013.1 0.0
01/10:14am 16.6 11.4 10.2 66 3.4 W 28 46 15 25 1012.9 1013.0 0.0
01/10:00am 16.4 10.6 9.6 64 3.6 W 30 41 16 22 1012.7 1012.8 0.0
01/09:30am 16.0 11.6 11.8 76 2.3 WNW 26 35 14 19 1012.5 1012.3 0.0
01/09:00am 16.2 12.7 12.2 77 2.2 WNW 22 39 12 21 1012.1 1011.9 24.8
01/08:30am 15.9 13.3 13.2 84 1.5 NW 19 33 10 18 1011.7 1011.5 24.8
01/08:00am 15.7 12.6 13.4 86 1.3 NW 22 33 12 18 1011.2 1011.0 24.8
01/07:30am 15.4 12.6 13.2 87 1.2 NW 20 28 11 15 1010.8 1010.6 24.8
01/07:00am 14.9 13.6 13.8 93 0.6 NW 13 19 7 10 1010.3 1010.1 24.8
01/06:30am 15.0 14.3 14.2 95 0.5 NW 11 22 6 12 1009.8 1009.6 24.8
01/06:00am 14.9 14.1 14.1 95 0.5 WNW 11 17 6 9 1009.5 1009.3 24.8
01/05:30am 15.3 13.9 14.5 95 0.5 WNW 15 22 8 12 1009.1 1008.9 24.8
01/05:00am 16.1 13.9 15.0 93 0.6 WNW 20 32 11 17 1008.7 1008.5 24.8
01/04:30am 16.4 12.5 15.6 95 0.5 WNW 30 43 16 23 1008.4 1008.2 24.6
01/04:23am 18.0 15.1 17.0 94 0.6 NNW 28 52 15 28 1008.0 1007.8 24.6
01/04:00am 17.7 16.1 17.5 99 0.1 N 22 30 12 16 1007.2 1007.0 23.2
01/03:30am 15.9 15.8 15.9 100 0.0 N 11 17 6 9 1007.4 1007.2 22.8
01/03:00am 15.3 14.6 15.3 100 0.0 W 13 35 7 19 1008.1 1007.9 16.2
01/02:47am 16.6 15.4 16.0 96 0.4 WNW 17 43 9 23 1009.3 1009.1 5.6
01/02:30am 16.5 12.2 14.3 87 1.3 NNE 30 56 16 30 1007.3 1007.1 3.4
01/02:19am 18.1 15.3 17.3 95 0.5 NNE 28 52 15 28 1007.0 1006.8 0.8
01/02:00am 17.4 16.0 16.6 95 0.5 NE 19 28 10 15 1007.0 1006.8 0.2
01/01:30am 16.9 16.2 16.3 96 0.4 NE 15 22 8 12 1008.4 1008.2 0.0
01/01:00am 16.7 17.0 16.1 96 0.4 NE 9 15 5 8 1009.7 1009.5 0.0
01/12:30am 16.8 16.8 16.2 96 0.4 ENE 11 15 6 8 1010.1 1009.9 0.0
01/12:00am 16.9 17.0 16.6 98 0.2 ENE 11 17 6 9 1010.8 1010.6 0.0
 
Date/Time
EST
Temp
°C
App
Temp
°C
Dew
Point
Rel
Hum
%
Delta-T
°C
Wind Press
QNH
hPa
Press
MSL
hPa
Rain
since 9 am
mm
Dir
 
Spd
km/h
Gust
km/h
Spd
kts
Gust
kts
30/11:30pm 16.6 16.7 16.4 99 0.1 ENE 11 13 6 7 1011.5 1011.3 0.0
30/11:00pm 16.1 16.0 15.9 99 0.1 ENE 11 13 6 7 1012.3 1012.1 0.0
30/10:30pm 16.3 16.2 16.1 99 0.1 ENE 11 13 6 7 1012.9 1012.8 0.0
30/10:00pm 16.3 16.6 16.1 99 0.1 ENE 9 11 5 6 1013.4 1013.3 0.0
30/09:30pm 16.1 16.3 15.8 98 0.2 ENE 9 11 5 6 1013.5 1013.4 0.0
30/09:00pm 16.4 16.7 15.9 97 0.3 NE 9 11 5 6 1013.7 1013.6 0.0
30/08:30pm 17.2 17.6 16.4 95 0.5 NNE 9 13 5 7 1014.1 1014.0 0.0
30/08:00pm 17.4 17.8 16.4 94 0.6 NE 9 13 5 7 1013.9 1013.8 0.0
30/07:30pm 17.9 18.0 16.6 92 0.8 NE 11 15 6 8 1013.9 1013.8 0.0
30/07:00pm 18.0 19.0 16.9 93 0.7 NE 7 11 4 6 1013.8 1013.7 0.0
30/06:30pm 18.4 18.7 16.9 91 0.9 NE 11 13 6 7 1013.6 1013.5 0.0
30/06:00pm 19.0 19.7 17.1 89 1.2 NE 9 13 5 7 1013.7 1013.6 0.0
30/05:30pm 20.1 21.1 17.7 86 1.5 NE 9 15 5 8 1013.7 1013.6 0.0
30/05:00pm 21.0 21.7 18.0 83 1.9 NE 11 17 6 9 1013.7 1013.6 0.0
30/04:30pm 21.1 20.9 17.7 81 2.1 NNE 15 22 8 12 1013.8 1013.7 0.0
30/04:00pm 21.6 22.3 18.0 80 2.2 NNE 11 17 6 9 1014.0 1013.9 0.0
30/03:30pm 22.0 22.3 17.8 77 2.6 NNE 13 17 7 9 1014.1 1014.0 0.0
30/03:00pm 21.5 21.6 17.5 78 2.5 NNE 13 20 7 11 1014.2 1014.1 0.0
30/02:30pm 21.4 21.8 17.2 77 2.6 NNE 11 17 6 9 1014.6 1014.5 0.0
30/02:00pm 21.1 20.9 17.7 81 2.1 N 15 20 8 11 1015.1 1014.9 0.0
30/01:30pm 21.1 21.2 18.3 84 1.8 NNE 15 24 8 13 1015.1 1014.9 0.0
30/01:00pm 20.8 21.2 18.2 85 1.6 NNE 13 19 7 10 1015.2 1015.0 0.0
30/12:30pm 20.0 20.5 18.3 90 1.1 N 13 17 7 9 1015.9 1015.7 0.0
30/12:00pm 19.4 18.6 18.1 92 0.8 NNW 19 28 10 15 1016.4 1016.2 0.0
30/11:30am 19.8 19.9 18.3 91 0.9 NNW 15 19 8 10 1016.5 1016.3 0.0
30/11:00am 19.6 19.2 18.1 91 0.9 N 17 22 9 12 1016.9 1016.7 0.0
30/10:30am 19.8 19.9 18.3 91 0.9 N 15 20 8 11 1016.9 1016.7 0.0
30/10:00am 19.6 20.0 19.1 97 0.3 N 15 19 8 10 1017.1 1016.9 0.0
30/09:30am 18.4 18.4 18.2 99 0.1 N 15 19 8 10 1017.2 1017.0 0.0
30/09:00am 18.0 18.0 18.0 100 0.0 N 15 20 8 11 1017.6 1017.4 19.4
30/08:30am 17.7 18.3 17.7 100 0.0 NNE 11 15 6 8 1017.7 1017.5 19.4
30/08:00am 17.5 18.4 17.5 100 0.0 NNE 9 15 5 8 1017.5 1017.3 19.4
30/07:30am 17.3 18.1 17.3 100 0.0 NNE 9 13 5 7 1017.2 1017.0 19.4
30/07:00am 17.1 18.2 17.1 100 0.0 NNE 7 11 4 6 1017.0 1016.8 19.4
30/06:30am 17.0 18.3 17.0 100 0.0 NNE 6 9 3 5 1016.7 1016.5 19.4
30/06:00am 17.0 18.1 17.0 100 0.0 NE 7 9 4 5 1016.7 1016.5 19.4
30/05:30am 16.9 18.5 16.9 100 0.0 NNE 4 6 2 3 1016.5 1016.3 19.4
30/05:00am 16.9 18.1 16.9 100 0.0 NE 6 9 3 5 1016.1 1015.9 19.4
30/04:30am 16.9 17.9 16.9 100 0.0 NE 7 11 4 6 1016.0 1015.8 19.2
30/04:00am 16.8 17.8 16.8 100 0.0 NE 7 9 4 5 1015.8 1015.6 19.2
30/03:30am 16.9 17.5 16.9 100 0.0 NE 9 13 5 7 1015.7 1015.5 19.2
30/03:00am 17.0 17.7 17.0 100 0.0 NE 9 13 5 7 1016.1 1015.9 19.0
30/02:30am 17.1 18.2 17.1 100 0.0 NE 7 11 4 6 1016.3 1016.1 19.0
30/02:00am 17.2 18.5 17.2 100 0.0 NNE 6 9 3 5 1016.6 1016.4 19.0
30/01:30am 17.2 18.3 17.0 99 0.1 N 7 9 4 5 1016.8 1016.6 19.0
30/01:00am 17.3 17.6 17.1 99 0.1 N 11 15 6 8 1016.9 1016.7 19.0
30/12:30am 17.4 17.4 17.2 99 0.1 N 13 19 7 10 1017.0 1016.8 19.0
30/12:00am 17.4 17.4 17.1 98 0.2 N 13 17 7 9 1016.8 1016.6 19.0
 
Date/Time
EST
Temp
°C
App
Temp
°C
Dew
Point
Rel
Hum
%
Delta-T
°C
Wind Press
QNH
hPa
Press
MSL
hPa
Rain
since 9 am
mm
Dir
 
Spd
km/h
Gust
km/h
Spd
kts
Gust
kts
29/11:30pm 17.4 17.7 17.1 98 0.2 N 11 15 6 8 1016.7 1016.5 19.0
29/11:00pm 17.5 17.5 17.3 99 0.1 N 13 17 7 9 1017.2 1017.0 19.0
29/10:30pm 17.6 16.5 17.3 98 0.2 N 19 26 10 14 1017.1 1016.9 19.0
29/10:00pm 17.7 17.0 17.4 98 0.2 N 17 24 9 13 1017.3 1017.1 19.0
29/09:30pm 17.8 18.0 17.6 99 0.1 N 13 17 7 9 1017.4 1017.2 19.0
29/09:00pm 17.7 17.5 17.7 100 0.0 N 15 22 8 12 1017.1 1016.9 19.0
29/08:30pm 17.8 17.6 17.6 99 0.1 N 15 20 8 11 1017.0 1016.8 19.0
29/08:00pm 17.7 17.2 17.7 100 0.0 N 17 24 9 13 1016.8 1016.6 19.0
29/07:30pm 17.6 17.0 17.6 100 0.0 N 17 26 9 14 1016.5 1016.3 19.0
29/07:00pm 17.6 17.0 17.6 100 0.0 NNE 17 26 9 14 1016.3 1016.1 19.0
29/06:30pm 17.5 17.3 17.5 100 0.0 NNE 15 22 8 12 1016.2 1016.0 18.8
29/06:00pm 17.3 17.3 17.3 100 0.0 NNE 13 19 7 10 1016.2 1016.0 18.4
29/05:30pm 17.2 17.2 17.2 100 0.0 NNE 13 19 7 10 1016.3 1016.1 17.8
29/05:00pm 17.1 17.4 17.1 100 0.0 NNE 11 17 6 9 1016.3 1016.1 17.4
29/04:30pm 17.1 17.4 17.1 100 0.0 NNE 11 17 6 9 1016.4 1016.2 16.6
29/04:00pm 17.0 17.7 17.0 100 0.0 NE 9 15 5 8 1016.5 1016.3 16.0
29/03:30pm 17.0 17.3 17.0 100 0.0 NE 11 17 6 9 1016.5 1016.3 15.8
29/03:00pm 16.8 17.0 16.8 100 0.0 NE 11 15 6 8 1016.7 1016.5 15.2
29/02:30pm 16.9 17.9 16.9 100 0.0 NE 7 13 4 7 1016.9 1016.7 14.6
29/02:00pm 16.8 18.0 16.8 100 0.0 NE 6 9 3 5 1016.8 1016.6 13.4

Other Formats:

Comma delimited format used in spreadsheet applications
http://www.bom.gov.au/fwo/IDV60801/IDV60801.94862.axf

JavaScript Object Notation format (JSON) in row-major order
http://www.bom.gov.au/fwo/IDV60801/IDV60801.94862.json